createdAt,value
2022-08-25T00:02:02.974Z,43.75
2022-08-25T00:04:30.270Z,43.31
2022-08-25T00:07:02.255Z,43.85
2022-08-25T00:09:31.460Z,43.45
2022-08-25T00:11:58.578Z,43.56
2022-08-25T00:14:35.055Z,43.84
2022-08-25T00:17:01.876Z,43.64
2022-08-25T00:19:32.189Z,43.92
2022-08-25T00:22:00.721Z,43.95
2022-08-25T00:24:28.332Z,44.30
2022-08-25T00:26:58.275Z,44.09
2022-08-25T00:29:26.384Z,44.03
2022-08-25T00:31:53.503Z,44.04
2022-08-25T00:34:25.654Z,44.67
2022-08-25T00:36:52.242Z,44.12
2022-08-25T00:39:21.320Z,44.35
2022-08-25T00:41:50.223Z,44.04
2022-08-25T00:44:20.047Z,44.20
2022-08-25T00:46:50.184Z,44.84
2022-08-25T00:49:28.711Z,45.77
2022-08-25T00:52:02.708Z,45.46
2022-08-25T00:54:35.229Z,44.86
2022-08-25T00:57:04.377Z,45.33
2022-08-25T00:59:31.016Z,45.43
2022-08-25T01:01:59.388Z,45.61
2022-08-25T01:04:26.828Z,45.91
2022-08-25T01:06:53.861Z,46.09
2022-08-25T01:09:20.858Z,46.45
2022-08-25T01:11:47.898Z,46.37
2022-08-25T01:14:17.231Z,46.87
2022-08-25T01:16:44.766Z,46.44
2022-08-25T01:19:15.211Z,46.55
2022-08-25T01:21:48.641Z,48.60
2022-08-25T01:24:21.375Z,47.45
2022-08-25T01:26:47.843Z,46.49
2022-08-25T01:29:25.349Z,46.20
2022-08-25T01:31:59.687Z,46.33
2022-08-25T01:34:27.980Z,46.79
2022-08-25T01:36:55.616Z,46.29
2022-08-25T01:39:22.639Z,46.58
2022-08-25T01:41:51.304Z,46.70
2022-08-25T01:44:19.228Z,46.98
2022-08-25T01:46:45.921Z,47.40
2022-08-25T01:49:12.469Z,47.69
2022-08-25T01:51:44.844Z,49.22
2022-08-25T01:54:11.403Z,48.20
2022-08-25T01:56:38.671Z,48.86
2022-08-25T01:59:05.385Z,47.82
2022-08-25T02:01:32.275Z,48.30
2022-08-25T02:03:59.581Z,48.25
2022-08-25T02:06:31.935Z,48.54
2022-08-25T02:09:04.510Z,48.89
2022-08-25T02:11:31.486Z,48.60
2022-08-25T02:13:59.190Z,48.79
2022-08-25T02:16:31.317Z,49.47
2022-08-25T02:18:59.262Z,49.96
2022-08-25T02:21:26.222Z,49.26
2022-08-25T02:23:53.425Z,51.46
2022-08-25T02:26:20.298Z,50.46
2022-08-25T02:28:47.782Z,49.07
2022-08-25T02:31:15.027Z,49.04
2022-08-25T02:33:41.594Z,50.10
2022-08-25T02:36:08.646Z,49.53
2022-08-25T02:38:35.976Z,49.61
2022-08-25T02:41:10.676Z,50.42
2022-08-25T02:43:37.192Z,52.11
2022-08-25T02:46:03.793Z,50.70
2022-08-25T02:48:33.100Z,50.06
2022-08-25T02:51:01.034Z,51.17
2022-08-25T02:53:29.054Z,53.62
2022-08-25T02:55:56.424Z,52.01
2022-08-25T02:58:23.732Z,53.47
2022-08-25T03:00:50.692Z,52.11
2022-08-25T03:03:17.410Z,52.66
2022-08-25T03:05:43.892Z,52.84
2022-08-25T03:08:11.082Z,53.42
2022-08-25T03:10:37.812Z,53.54
2022-08-25T03:13:04.817Z,53.14
2022-08-25T03:15:32.454Z,53.12
2022-08-25T03:17:59.890Z,53.73
2022-08-25T03:20:27.929Z,53.42
2022-08-25T03:22:54.501Z,54.96
2022-08-25T03:25:39.965Z,54.99
2022-08-25T03:28:08.044Z,55.40
2022-08-25T03:30:35.153Z,55.47
2022-08-25T03:33:01.690Z,54.12
2022-08-25T03:35:28.228Z,55.98
2022-08-25T03:37:58.143Z,54.66
2022-08-25T03:40:24.930Z,55.19
2022-08-25T03:42:51.579Z,54.70
2022-08-25T03:45:18.816Z,54.96
2022-08-25T03:47:48.035Z,56.18
2022-08-25T03:50:16.151Z,55.81
2022-08-25T03:52:42.918Z,57.46
2022-08-25T03:55:12.513Z,57.74
2022-08-25T03:57:39.353Z,57.26
2022-08-25T04:00:09.041Z,57.12
2022-08-25T04:02:35.758Z,56.87
2022-08-25T04:05:02.406Z,56.69
2022-08-25T04:07:29.392Z,56.80
2022-08-25T04:09:56.270Z,58.15
2022-08-25T04:12:22.881Z,56.85
2022-08-25T04:14:49.919Z,56.96
2022-08-25T04:17:16.703Z,56.93
2022-08-25T04:19:43.226Z,57.01
2022-08-25T04:22:09.860Z,58.73
2022-08-25T04:24:36.403Z,58.58
2022-08-25T04:27:03.057Z,59.69
2022-08-25T04:29:29.564Z,60.74
2022-08-25T04:31:56.302Z,62.09
2022-08-25T04:34:30.456Z,60.79
2022-08-25T04:37:00.457Z,61.53
2022-08-25T04:39:26.991Z,59.80
2022-08-25T04:41:53.690Z,58.69
2022-08-25T04:44:20.178Z,58.59
2022-08-25T04:46:46.701Z,58.12
2022-08-25T04:49:13.189Z,57.43
2022-08-25T04:51:41.737Z,57.74
2022-08-25T04:54:11.890Z,57.86
2022-08-25T04:56:40.343Z,57.67
2022-08-25T04:59:11.669Z,56.61
2022-08-25T05:01:38.877Z,56.61
2022-08-25T05:04:08.664Z,57.06
2022-08-25T05:06:43.576Z,56.43
2022-08-25T05:09:11.620Z,55.79
2022-08-25T05:11:38.876Z,54.95
2022-08-25T05:14:11.376Z,54.96
2022-08-25T05:16:39.209Z,55.67
2022-08-25T05:19:07.215Z,54.18
2022-08-25T05:21:33.706Z,54.51
2022-08-25T05:24:02.023Z,54.23
2022-08-25T05:26:33.737Z,54.54
2022-08-25T05:29:03.949Z,54.70
2022-08-25T05:31:32.903Z,54.33
2022-08-25T05:34:00.024Z,54.01
2022-08-25T05:36:27.864Z,53.66
2022-08-25T05:38:54.488Z,53.45
2022-08-25T05:41:25.540Z,52.63
2022-08-25T05:43:52.275Z,52.83
2022-08-25T05:46:19.883Z,52.42
2022-08-25T05:48:46.970Z,51.84
2022-08-25T05:51:15.001Z,51.14
2022-08-25T05:53:46.365Z,50.47
2022-08-25T05:56:14.097Z,50.79
2022-08-25T05:58:42.289Z,49.89
2022-08-25T06:01:27.714Z,49.11
2022-08-25T06:03:54.437Z,48.28
2022-08-25T06:06:23.268Z,47.88
2022-08-25T06:08:50.392Z,47.56
2022-08-25T06:11:16.999Z,45.50
2022-08-25T06:13:43.563Z,46.20
2022-08-25T06:16:10.514Z,45.89
2022-08-25T06:18:37.168Z,45.27
2022-08-25T06:21:12.717Z,43.35
2022-08-25T06:23:39.944Z,42.80
2022-08-25T06:26:09.787Z,42.40
2022-08-25T06:28:39.640Z,42.33
2022-08-25T06:31:06.467Z,43.25
2022-08-25T06:33:33.084Z,43.33
2022-08-25T06:35:59.904Z,42.38
2022-08-25T06:38:26.841Z,43.14
2022-08-25T06:40:53.600Z,42.39
2022-08-25T06:43:20.936Z,42.42
2022-08-25T06:45:48.499Z,42.98
2022-08-25T06:48:16.044Z,41.61
2022-08-25T06:50:43.296Z,41.66
2022-08-25T06:53:10.243Z,40.90
2022-08-25T06:55:36.882Z,40.09
2022-08-25T06:58:04.923Z,39.56
2022-08-25T07:00:33.219Z,38.33
2022-08-25T07:03:01.435Z,38.86
2022-08-25T07:05:40.790Z,38.88
2022-08-25T07:08:11.862Z,37.76
2022-08-25T07:10:38.874Z,37.41
2022-08-25T07:13:05.551Z,38.12
2022-08-25T07:15:32.125Z,36.95
2022-08-25T07:17:59.779Z,36.08
2022-08-25T07:22:58.133Z,37.05
2022-08-25T07:25:24.838Z,35.60
2022-08-25T07:27:53.864Z,37.65
2022-08-25T07:30:24.087Z,35.93
2022-08-25T07:32:51.363Z,36.50
2022-08-25T07:35:26.148Z,35.92
2022-08-25T07:37:58.203Z,34.93
2022-08-25T07:40:30.237Z,34.67
2022-08-25T07:42:58.994Z,34.40
2022-08-25T07:45:31.757Z,33.26
2022-08-25T07:48:00.920Z,33.23
2022-08-25T07:50:29.550Z,34.17
2022-08-25T07:52:57.501Z,34.70
2022-08-25T07:55:26.046Z,32.80
2022-08-25T07:57:56.317Z,33.90
2022-08-25T08:00:27.890Z,33.32
2022-08-25T08:02:55.346Z,32.49
2022-08-25T08:05:24.025Z,33.64
2022-08-25T08:07:52.160Z,32.71
2022-08-25T08:10:47.822Z,33.16
2022-08-25T08:13:07.433Z,33.91
2022-08-25T08:15:34.986Z,32.73
2022-08-25T08:18:02.047Z,32.69
2022-08-25T08:20:31.719Z,32.66
2022-08-25T08:23:09.038Z,31.71
2022-08-25T08:25:35.641Z,31.82
2022-08-25T08:28:02.452Z,32.22
2022-08-25T08:30:29.015Z,33.84
2022-08-25T08:33:12.509Z,32.66
2022-08-25T08:35:40.950Z,31.49
2022-08-25T08:38:14.925Z,31.35
2022-08-25T08:41:15.475Z,30.82
2022-08-25T08:43:45.401Z,30.15
2022-08-25T08:46:12.482Z,29.90
2022-08-25T08:49:00.445Z,30.04
2022-08-25T08:51:35.947Z,29.65
2022-08-25T08:54:18.765Z,30.59
2022-08-25T08:56:50.543Z,29.53
2022-08-25T08:59:30.048Z,29.63
2022-08-25T09:02:02.703Z,31.29
2022-08-25T09:04:37.694Z,32.34
2022-08-25T09:07:11.071Z,33.26
2022-08-25T09:09:41.984Z,32.65
2022-08-25T09:12:31.733Z,32.99
2022-08-25T09:15:13.037Z,31.94
2022-08-25T09:17:57.830Z,30.64
2022-08-25T09:21:26.133Z,31.08
2022-08-25T09:24:02.813Z,31.00
2022-08-25T09:26:43.617Z,31.37
2022-08-25T09:29:16.496Z,31.40
2022-08-25T09:31:43.417Z,31.63
2022-08-25T09:34:22.172Z,31.79
2022-08-25T09:36:52.792Z,31.20
2022-08-25T09:39:23.416Z,31.26
2022-08-25T09:41:59.159Z,30.29
2022-08-25T09:44:43.618Z,30.29
2022-08-25T09:47:22.238Z,29.91
2022-08-25T09:49:50.751Z,29.97
2022-08-25T09:52:32.403Z,29.85
2022-08-25T09:55:02.382Z,30.49
2022-08-25T09:57:29.131Z,29.91
2022-08-25T09:59:57.794Z,30.32
2022-08-25T10:02:29.106Z,30.19
2022-08-25T10:04:56.199Z,30.36
2022-08-25T10:07:39.644Z,30.03
2022-08-25T10:10:32.623Z,29.72
2022-08-25T10:13:01.638Z,29.94
2022-08-25T10:15:36.541Z,29.52
2022-08-25T10:18:15.316Z,29.14
2022-08-25T10:20:44.566Z,29.82
2022-08-25T10:23:14.278Z,29.25
2022-08-25T10:25:59.127Z,30.55
2022-08-25T10:28:46.370Z,30.21
2022-08-25T10:31:26.061Z,29.57
2022-08-25T10:33:58.352Z,30.10
2022-08-25T10:36:58.929Z,29.59
2022-08-25T10:39:40.711Z,29.96
2022-08-25T10:42:29.409Z,29.98
2022-08-25T10:45:23.339Z,29.12
2022-08-25T10:48:13.136Z,28.63
2022-08-25T10:50:49.307Z,30.01
2022-08-25T10:54:04.249Z,29.38
2022-08-25T10:56:40.967Z,29.21
2022-08-25T10:59:13.612Z,29.49
2022-08-25T11:02:13.193Z,29.36
2022-08-25T11:04:52.948Z,28.79
2022-08-25T11:07:34.529Z,27.36
2022-08-25T11:10:09.907Z,28.04
2022-08-25T11:12:50.304Z,28.07
2022-08-25T11:15:28.824Z,28.26
2022-08-25T11:18:02.709Z,28.12
2022-08-25T11:20:41.519Z,28.32
2022-08-25T11:23:27.039Z,28.63
2022-08-25T11:26:03.081Z,28.40
2022-08-25T11:28:30.523Z,28.70
2022-08-25T11:31:01.148Z,28.04
2022-08-25T11:33:30.467Z,27.64
2022-08-25T11:36:19.580Z,28.20
2022-08-25T11:39:08.072Z,26.38
2022-08-25T11:42:08.045Z,26.29
2022-08-25T11:44:53.122Z,26.03
2022-08-25T11:47:48.411Z,26.88
2022-08-25T11:50:50.777Z,26.83
2022-08-25T11:53:30.365Z,26.54
2022-08-25T11:56:08.316Z,26.71
2022-08-25T11:58:46.756Z,26.98
2022-08-25T12:01:43.085Z,26.16
2022-08-25T12:04:14.915Z,26.02
2022-08-25T12:07:06.289Z,25.87
2022-08-25T12:09:54.564Z,25.08
2022-08-25T12:12:28.605Z,25.11
2022-08-25T12:14:55.334Z,25.31
2022-08-25T12:17:25.865Z,24.22
2022-08-25T12:19:56.178Z,24.62
2022-08-25T12:22:22.610Z,24.78
2022-08-25T12:24:56.060Z,24.65
2022-08-25T12:27:43.613Z,25.04
2022-08-25T12:30:27.446Z,25.12
2022-08-25T12:33:09.413Z,25.66
2022-08-25T12:35:56.955Z,24.89
2022-08-25T12:38:47.312Z,24.66
2022-08-25T12:41:24.470Z,25.30
2022-08-25T12:43:54.405Z,24.46
2022-08-25T12:46:25.644Z,24.09
2022-08-25T12:49:06.233Z,23.64
2022-08-25T12:51:33.765Z,24.71
2022-08-25T12:54:15.939Z,21.90
2022-08-25T12:56:50.385Z,22.15
2022-08-25T12:59:21.893Z,22.07
2022-08-25T13:02:09.110Z,21.81
2022-08-25T13:04:35.669Z,21.89
2022-08-25T13:07:18.751Z,21.32
2022-08-25T13:09:58.746Z,21.76
2022-08-25T13:12:34.256Z,22.71
2022-08-25T13:15:01.186Z,23.10
2022-08-25T13:17:35.840Z,20.91
2022-08-25T13:20:13.173Z,20.23
2022-08-25T13:22:40.434Z,21.07
2022-08-25T13:25:07.434Z,21.40
2022-08-25T13:27:37.152Z,22.47
2022-08-25T13:30:05.315Z,22.19
2022-08-25T13:32:36.615Z,21.64
2022-08-25T13:35:32.799Z,21.77
2022-08-25T13:38:16.625Z,23.49
2022-08-25T13:40:44.216Z,23.37
2022-08-25T13:43:15.031Z,22.83
2022-08-25T13:45:45.480Z,23.08
2022-08-25T13:48:21.009Z,23.04
2022-08-25T13:50:52.096Z,23.26
2022-08-25T13:53:25.469Z,22.89
2022-08-25T13:55:57.217Z,22.10
2022-08-25T13:58:38.936Z,20.98
2022-08-25T14:01:32.273Z,20.74
2022-08-25T14:04:22.250Z,20.27
2022-08-25T14:07:04.388Z,20.21
2022-08-25T14:09:47.615Z,20.65
2022-08-25T14:12:39.997Z,20.57
2022-08-25T14:15:32.244Z,21.51
2022-08-25T14:18:29.037Z,21.31
2022-08-25T14:20:57.682Z,21.67
2022-08-25T14:23:27.500Z,21.89
2022-08-25T14:25:56.519Z,22.44
2022-08-25T14:28:26.023Z,21.83
2022-08-25T14:31:05.313Z,22.08
2022-08-25T14:33:50.095Z,21.95
2022-08-25T14:36:20.705Z,22.52
2022-08-25T14:38:47.863Z,21.62
2022-08-25T14:41:23.794Z,22.43
2022-08-25T14:43:50.510Z,22.23
2022-08-25T14:46:21.389Z,21.65
2022-08-25T14:48:52.249Z,22.21
2022-08-25T14:51:18.776Z,22.50
2022-08-25T14:53:47.104Z,22.48
2022-08-25T14:56:14.248Z,22.44
2022-08-25T14:58:50.968Z,22.68
2022-08-25T15:01:20.698Z,22.56
2022-08-25T15:04:02.620Z,22.18
2022-08-25T15:06:29.489Z,22.83
2022-08-25T15:09:08.481Z,21.40
2022-08-25T15:11:36.395Z,21.51
2022-08-25T15:14:06.118Z,22.71
2022-08-25T15:16:42.152Z,22.20
2022-08-25T15:19:14.319Z,22.47
2022-08-25T15:21:44.774Z,22.33
2022-08-25T15:24:17.517Z,22.15
2022-08-25T15:29:29.720Z,21.76
2022-08-25T15:31:57.941Z,21.67
2022-08-25T15:34:24.549Z,21.70
2022-08-25T15:36:51.558Z,21.68
2022-08-25T15:39:19.579Z,21.06
2022-08-25T15:41:49.236Z,20.69
2022-08-25T15:44:16.372Z,21.68
2022-08-25T15:46:47.123Z,21.75
2022-08-25T15:49:20.724Z,21.34
2022-08-25T15:51:50.460Z,21.98
2022-08-25T15:54:17.109Z,22.30
2022-08-25T15:56:44.338Z,21.69
2022-08-25T15:59:13.416Z,21.52
2022-08-25T16:01:41.006Z,21.42
2022-08-25T16:04:07.964Z,21.99
2022-08-25T16:06:34.478Z,21.98
2022-08-25T16:09:01.432Z,21.91
2022-08-25T16:11:30.536Z,22.46
2022-08-25T16:13:58.185Z,22.34
2022-08-25T16:16:27.322Z,22.06
2022-08-25T16:18:54.954Z,22.67
2022-08-25T16:21:29.840Z,22.59
2022-08-25T16:23:59.824Z,22.77
2022-08-25T16:26:29.828Z,22.93
2022-08-25T16:28:56.720Z,22.74
2022-08-25T16:31:24.198Z,22.71
2022-08-25T16:33:54.793Z,22.80
2022-08-25T16:36:27.154Z,22.66
2022-08-25T16:38:55.396Z,22.46
2022-08-25T16:41:33.850Z,22.68
2022-08-25T16:44:04.444Z,22.88
2022-08-25T16:46:31.170Z,22.78
2022-08-25T16:49:01.405Z,22.78
2022-08-25T16:51:29.659Z,22.94
2022-08-25T16:54:22.222Z,22.85
2022-08-25T16:56:49.476Z,22.82
2022-08-25T16:59:23.509Z,22.54
2022-08-25T17:01:52.241Z,23.19
2022-08-25T17:04:19.719Z,22.97
2022-08-25T17:06:49.414Z,23.10
2022-08-25T17:09:22.859Z,23.20
2022-08-25T17:11:54.386Z,23.06
2022-08-25T17:14:21.853Z,23.95
2022-08-25T17:16:51.090Z,23.97
2022-08-25T17:19:18.634Z,23.96
2022-08-25T17:21:46.193Z,23.69
2022-08-25T17:24:13.958Z,24.35
2022-08-25T17:26:46.074Z,25.10
2022-08-25T17:29:13.168Z,25.54
2022-08-25T17:31:40.500Z,25.15
2022-08-25T17:34:12.895Z,25.82
2022-08-25T17:36:43.885Z,25.68
2022-08-25T17:39:12.652Z,26.73
2022-08-25T17:41:41.875Z,26.15
2022-08-25T17:44:08.385Z,26.93
2022-08-25T17:46:35.031Z,27.48
2022-08-25T17:49:01.636Z,27.94
2022-08-25T17:51:30.099Z,28.38
2022-08-25T17:53:58.387Z,28.59
2022-08-25T17:56:27.401Z,29.71
2022-08-25T17:58:55.224Z,30.06
2022-08-25T18:01:28.235Z,31.25
2022-08-25T18:03:56.003Z,30.68
2022-08-25T18:06:23.550Z,31.62
2022-08-25T18:08:52.219Z,31.05
2022-08-25T18:11:21.042Z,32.54
2022-08-25T18:13:47.745Z,33.07
2022-08-25T18:16:17.142Z,32.80
2022-08-25T18:18:44.420Z,33.93
2022-08-25T18:21:13.655Z,33.00
2022-08-25T18:23:42.410Z,32.98
2022-08-25T18:26:10.239Z,34.73
2022-08-25T18:28:39.584Z,34.69
2022-08-25T18:31:06.477Z,34.98
2022-08-25T18:33:34.061Z,35.14
2022-08-25T18:36:02.288Z,35.53
2022-08-25T18:38:47.844Z,35.50
2022-08-25T18:41:14.496Z,35.42
2022-08-25T18:43:41.149Z,35.14
2022-08-25T18:46:08.241Z,35.60
2022-08-25T18:48:37.497Z,36.33
2022-08-25T18:51:04.883Z,36.74
2022-08-25T18:53:37.362Z,36.54
2022-08-25T18:56:16.581Z,37.13
2022-08-25T18:58:43.169Z,37.26
2022-08-25T19:01:13.709Z,38.88
2022-08-25T19:03:40.393Z,37.61
2022-08-25T19:06:07.153Z,39.49
2022-08-25T19:08:33.752Z,39.62
2022-08-25T19:11:00.305Z,39.28
2022-08-25T19:13:26.818Z,38.86
2022-08-25T19:15:53.753Z,38.18
2022-08-25T19:18:26.024Z,38.45
2022-08-25T19:20:55.438Z,38.70
2022-08-25T19:23:21.982Z,40.02
2022-08-25T19:25:48.831Z,40.21
2022-08-25T19:28:16.757Z,42.14
2022-08-25T19:30:49.918Z,41.33
2022-08-25T19:33:42.522Z,40.63
2022-08-25T19:36:08.488Z,40.69
2022-08-25T19:38:36.149Z,40.25
2022-08-25T19:41:09.432Z,41.55
2022-08-25T19:43:56.536Z,41.40
2022-08-25T19:46:45.557Z,42.15
2022-08-25T19:49:14.469Z,41.11
2022-08-25T19:51:46.805Z,41.45
2022-08-25T19:54:19.162Z,44.51
2022-08-25T19:56:54.962Z,41.11
2022-08-25T19:59:42.280Z,41.68
2022-08-25T20:02:15.494Z,44.06
2022-08-25T20:04:50.334Z,43.45
2022-08-25T20:07:21.180Z,42.19
2022-08-25T20:09:48.619Z,42.02
2022-08-25T20:14:49.330Z,42.06
2022-08-25T20:17:24.624Z,42.49
2022-08-25T20:19:55.750Z,41.71
2022-08-25T20:22:26.305Z,41.33
2022-08-25T20:24:57.403Z,42.87
2022-08-25T20:27:37.484Z,42.24
2022-08-25T20:30:08.386Z,44.44
2022-08-25T20:32:35.662Z,44.91
2022-08-25T20:35:05.155Z,44.60
2022-08-25T20:37:36.324Z,45.23
2022-08-25T20:40:03.656Z,45.47
2022-08-25T20:42:30.339Z,46.74
2022-08-25T20:44:57.590Z,46.63
2022-08-25T20:47:24.211Z,45.28
2022-08-25T20:49:51.169Z,44.96
2022-08-25T20:52:19.717Z,45.98
2022-08-25T20:54:50.367Z,44.70
2022-08-25T20:57:25.809Z,45.77
2022-08-25T20:59:54.185Z,45.30
2022-08-25T21:02:21.335Z,47.26
2022-08-25T21:04:49.097Z,45.41
2022-08-25T21:07:17.074Z,46.39
2022-08-25T21:09:43.642Z,46.76
2022-08-25T21:12:10.181Z,46.46
2022-08-25T21:14:39.689Z,47.33
2022-08-25T21:17:06.335Z,47.40
2022-08-25T21:19:33.359Z,47.00
2022-08-25T21:22:02.565Z,46.85
2022-08-25T21:24:29.399Z,46.86
2022-08-25T21:26:58.118Z,47.25
2022-08-25T21:29:28.618Z,47.31
2022-08-25T21:31:56.235Z,47.74
2022-08-25T21:34:23.128Z,49.28
2022-08-25T21:36:49.871Z,47.42
2022-08-25T21:39:16.782Z,49.77
2022-08-25T21:41:45.460Z,49.75
2022-08-25T21:44:13.041Z,52.50
2022-08-25T21:46:41.128Z,52.75
2022-08-25T21:49:08.776Z,50.96
2022-08-25T21:51:40.784Z,50.20
2022-08-25T21:54:10.433Z,49.52
2022-08-25T21:56:44.388Z,52.07
2022-08-25T21:59:13.998Z,50.00
2022-08-25T22:01:41.612Z,51.49
2022-08-25T22:04:10.084Z,50.45
2022-08-25T22:06:36.973Z,50.32
2022-08-25T22:09:06.018Z,52.20
2022-08-25T22:11:35.938Z,51.04
2022-08-25T22:14:03.624Z,53.28
2022-08-25T22:16:33.049Z,52.18
2022-08-25T22:19:00.339Z,54.58
2022-08-25T22:21:27.981Z,52.73
2022-08-25T22:23:58.489Z,52.17
2022-08-25T22:26:28.997Z,57.58
2022-08-25T22:28:57.333Z,52.10
2022-08-25T22:31:24.621Z,50.67
2022-08-25T22:33:52.323Z,48.87
2022-08-25T22:36:25.363Z,49.01
2022-08-25T22:38:53.307Z,48.67
2022-08-25T22:41:21.668Z,47.96
2022-08-25T22:43:49.890Z,47.58
2022-08-25T22:46:19.649Z,47.13
2022-08-25T22:48:46.561Z,46.75
2022-08-25T22:51:20.589Z,46.83
2022-08-25T22:53:47.937Z,48.13
2022-08-25T22:56:18.094Z,46.74
2022-08-25T22:58:51.921Z,47.75
2022-08-25T23:01:20.585Z,47.50
2022-08-25T23:03:47.701Z,47.45
2022-08-25T23:06:24.443Z,49.56
2022-08-25T23:08:53.814Z,49.35
2022-08-25T23:11:21.832Z,49.05
2022-08-25T23:13:49.323Z,48.87
2022-08-25T23:16:17.254Z,48.94
2022-08-25T23:24:29.404Z,50.99
2022-08-25T23:26:58.538Z,51.52
2022-08-25T23:29:25.175Z,53.18
2022-08-25T23:31:52.070Z,55.26
2022-08-25T23:34:20.661Z,53.36
2022-08-25T23:36:47.860Z,54.62
2022-08-25T23:39:14.407Z,57.64
2022-08-25T23:41:41.597Z,56.58
2022-08-25T23:44:09.348Z,56.77
2022-08-25T23:46:39.422Z,57.29
2022-08-25T23:49:08.453Z,62.27
2022-08-25T23:51:38.014Z,64.21
2022-08-25T23:54:09.472Z,65.11
2022-08-25T23:56:44.434Z,66.84
2022-08-25T23:59:12.990Z,67.65
